Time;durP1;ratioP1;P1;durP2;ratioP2;P2;SDS_P1;SDS_P2;PMS_P1;PMS_P2;Temp;Humidity;BMP_temperature;BMP_pressure;BME280_temperature;BME280_humidity;BME280_pressure;Samples;Min_cycle;Max_cycle;Signal;HPM_P1;HPM_P2
2022/10/28 00:00:33;;;;;;;13.40;7.53;;;;;;;;;;5076464;28;20456;-66
2022/10/28 00:03:02;;;;;;;18.23;7.70;;;;;;;;;;5075796;28;20452;-67
2022/10/28 00:05:30;;;;;;;16.87;7.93;;;;;;;;;;5076432;28;20456;-67
2022/10/28 00:07:57;;;;;;;15.83;7.67;;;;;;;;;;5076069;28;20765;-67
2022/10/28 00:10:24;;;;;;;11.63;7.60;;;;;;;;;;5076425;28;20792;-67
2022/10/28 00:12:51;;;;;;;13.80;8.10;;;;;;;;;;5075600;28;20455;-67
2022/10/28 00:15:19;;;;;;;16.57;7.80;;;;;;;;;;5075563;28;20473;-67
2022/10/28 00:17:46;;;;;;;17.10;7.97;;;;;;;;;;5076000;28;20789;-67
2022/10/28 00:20:14;;;;;;;11.03;8.10;;;;;;;;;;5076292;28;20438;-67
2022/10/28 00:22:42;;;;;;;13.03;8.30;;;;;;;;;;5075826;28;20504;-66
2022/10/28 00:25:09;;;;;;;10.57;7.40;;;;;;;;;;5075607;28;20473;-67
2022/10/28 00:27:36;;;;;;;11.03;7.00;;;;;;;;;;5075714;28;20448;-67
2022/10/28 00:30:04;;;;;;;16.20;6.73;;;;;;;;;;5075715;28;20446;-67
2022/10/28 00:32:31;;;;;;;8.83;7.07;;;;;;;;;;5075335;28;20465;-67
2022/10/28 00:34:59;;;;;;;12.83;6.80;;;;;;;;;;5075595;28;20527;-67
2022/10/28 00:37:27;;;;;;;14.10;6.93;;;;;;;;;;5075931;28;20434;-67
2022/10/28 00:39:54;;;;;;;19.47;8.00;;;;;;;;;;5075165;28;20455;-68
2022/10/28 00:42:22;;;;;;;8.83;6.80;;;;;;;;;;5075141;28;20450;-68
2022/10/28 00:44:53;;;;;;;13.80;7.27;;;;;;;;;;5075335;28;20443;-67
2022/10/28 00:47:28;;;;;;;21.33;7.63;;;;;;;;;;5076163;28;20427;-68
2022/10/28 00:49:57;;;;;;;11.40;7.60;;;;;;;;;;5075334;28;20442;-67
2022/10/28 00:52:26;;;;;;;10.83;7.67;;;;;;;;;;5075514;28;20449;-67
2022/10/28 00:54:56;;;;;;;12.20;7.20;;;;;;;;;;5074585;28;20450;-68
2022/10/28 00:57:26;;;;;;;12.50;8.93;;;;;;;;;;5075356;28;20447;-67
2022/10/28 00:59:54;;;;;;;17.97;8.00;;;;;;;;;;5075286;28;20451;-67
2022/10/28 01:02:21;;;;;;;11.70;7.53;;;;;;;;;;5075057;28;20451;-67
2022/10/28 01:04:49;;;;;;;13.80;8.90;;;;;;;;;;5075152;28;20541;-67
2022/10/28 01:07:16;;;;;;;18.77;7.90;;;;;;;;;;5074731;28;20438;-67
2022/10/28 01:09:44;;;;;;;13.27;7.97;;;;;;;;;;5074578;28;20442;-67
2022/10/28 01:12:18;;;;;;;17.93;8.20;;;;;;;;;;5075014;28;20452;-67
2022/10/28 01:14:52;;;;;;;9.83;8.60;;;;;;;;;;5075157;28;20433;-67
2022/10/28 01:17:31;;;;;;;12.03;7.20;;;;;;;;;;5074920;28;20435;-68
2022/10/28 01:20:25;;;;;;;12.83;7.67;;;;;;;;;;5074595;28;20794;-67
2022/10/28 01:22:54;;;;;;;15.37;7.20;;;;;;;;;;5038856;28;20443;-67
2022/10/28 01:25:30;;;;;;;12.77;7.27;;;;;;;;;;5074301;28;20487;-67
2022/10/28 01:28:08;;;;;;;15.23;8.73;;;;;;;;;;5074696;28;20431;-67
2022/10/28 01:30:41;;;;;;;14.87;8.03;;;;;;;;;;5074181;28;20443;-67
2022/10/28 01:33:13;;;;;;;12.47;7.80;;;;;;;;;;5075075;28;20434;-67
2022/10/28 01:35:45;;;;;;;12.63;7.07;;;;;;;;;;5073980;28;20481;-67
2022/10/28 01:38:20;;;;;;;11.30;7.17;;;;;;;;;;5074883;28;20784;-67
2022/10/28 01:40:52;;;;;;;18.90;7.83;;;;;;;;;;5074762;28;20424;-67
2022/10/28 01:43:24;;;;;;;12.30;7.70;;;;;;;;;;5074043;28;20442;-67
2022/10/28 01:45:52;;;;;;;19.67;9.07;;;;;;;;;;5074311;28;20443;-67
2022/10/28 01:48:22;;;;;;;18.60;8.87;;;;;;;;;;5073932;28;20461;-67
2022/10/28 01:50:53;;;;;;;18.03;8.77;;;;;;;;;;5074612;28;20445;-67
2022/10/28 01:53:22;;;;;;;15.03;8.77;;;;;;;;;;5074245;28;20438;-67
2022/10/28 01:55:51;;;;;;;11.07;7.83;;;;;;;;;;5073980;28;20480;-67
2022/10/28 01:58:20;;;;;;;15.23;9.17;;;;;;;;;;5073759;28;20456;-67
2022/10/28 02:00:47;;;;;;;11.73;7.53;;;;;;;;;;5073916;28;20451;-68
2022/10/28 02:03:14;;;;;;;13.63;8.33;;;;;;;;;;5073953;28;20446;-67
2022/10/28 02:05:44;;;;;;;14.27;8.07;;;;;;;;;;5073588;28;20486;-67
2022/10/28 02:08:24;;;;;;;12.57;8.33;;;;;;;;;;5073248;28;20433;-67
2022/10/28 02:10:59;;;;;;;13.83;9.33;;;;;;;;;;5073940;28;20861;-67
2022/10/28 02:13:29;;;;;;;13.40;8.20;;;;;;;;;;5073834;28;20442;-67
2022/10/28 02:16:00;;;;;;;14.50;8.30;;;;;;;;;;5073761;28;20467;-67
2022/10/28 02:18:32;;;;;;;9.00;7.63;;;;;;;;;;5073941;28;20439;-67
2022/10/28 02:21:02;;;;;;;11.93;8.10;;;;;;;;;;5073779;28;20513;-67
2022/10/28 02:23:37;;;;;;;16.60;9.37;;;;;;;;;;5074060;28;20442;-67
2022/10/28 02:26:08;;;;;;;13.93;8.43;;;;;;;;;;5073941;28;20823;-67
2022/10/28 02:28:40;;;;;;;15.97;8.20;;;;;;;;;;5073599;28;20442;-67
2022/10/28 02:31:11;;;;;;;11.60;8.70;;;;;;;;;;5073621;28;20452;-67
2022/10/28 02:33:39;;;;;;;13.90;9.00;;;;;;;;;;5073790;28;20900;-67
2022/10/28 02:36:09;;;;;;;14.40;9.67;;;;;;;;;;5073555;28;20486;-67
2022/10/28 02:38:38;;;;;;;15.53;9.80;;;;;;;;;;5073774;28;20435;-67
2022/10/28 02:41:07;;;;;;;13.77;8.80;;;;;;;;;;5073758;28;20439;-67
2022/10/28 02:43:36;;;;;;;13.10;9.63;;;;;;;;;;5073129;28;20455;-67
2022/10/28 02:46:04;;;;;;;16.07;9.13;;;;;;;;;;5073359;28;20470;-67
2022/10/28 02:48:33;;;;;;;15.27;9.20;;;;;;;;;;5073138;28;20459;-67
2022/10/28 02:51:03;;;;;;;13.83;8.77;;;;;;;;;;5073343;28;20799;-67
2022/10/28 02:53:37;;;;;;;14.27;8.73;;;;;;;;;;5073080;28;20440;-67
2022/10/28 02:56:06;;;;;;;16.03;9.70;;;;;;;;;;5073251;28;20472;-68
2022/10/28 02:58:38;;;;;;;16.07;10.10;;;;;;;;;;5073292;28;20963;-67
2022/10/28 03:01:06;;;;;;;11.90;8.43;;;;;;;;;;5073239;28;20429;-67
2022/10/28 03:03:33;;;;;;;16.23;10.60;;;;;;;;;;5073387;28;20455;-67
2022/10/28 03:06:01;;;;;;;18.77;12.03;;;;;;;;;;5073197;28;20923;-67
2022/10/28 03:08:28;;;;;;;13.00;9.00;;;;;;;;;;5073271;28;20446;-67
2022/10/28 03:10:56;;;;;;;13.70;9.30;;;;;;;;;;5073109;28;20445;-67
2022/10/28 03:13:23;;;;;;;15.67;10.27;;;;;;;;;;5073287;28;20445;-67
2022/10/28 03:15:51;;;;;;;15.73;10.07;;;;;;;;;;5073176;28;20477;-67
2022/10/28 03:18:18;;;;;;;18.50;9.40;;;;;;;;;;5073481;28;20469;-67
2022/10/28 03:20:45;;;;;;;12.40;9.53;;;;;;;;;;5077010;28;20448;-67
2022/10/28 03:23:12;;;;;;;15.63;9.40;;;;;;;;;;5076936;28;20464;-68
2022/10/28 03:25:39;;;;;;;12.13;8.77;;;;;;;;;;5076509;28;20470;-67
2022/10/28 03:28:08;;;;;;;15.13;9.60;;;;;;;;;;5076856;28;20450;-67
2022/10/28 03:30:35;;;;;;;20.47;9.80;;;;;;;;;;5076725;28;20456;-67
2022/10/28 03:33:02;;;;;;;15.70;9.70;;;;;;;;;;5076806;28;20447;-67
2022/10/28 03:35:29;;;;;;;15.53;10.20;;;;;;;;;;5076443;28;20456;-67
2022/10/28 03:37:56;;;;;;;18.73;10.23;;;;;;;;;;5076788;28;20459;-67
2022/10/28 03:40:24;;;;;;;16.97;8.10;;;;;;;;;;5076783;28;20447;-66
2022/10/28 03:42:51;;;;;;;20.50;9.57;;;;;;;;;;5076947;28;20439;-68
2022/10/28 03:45:19;;;;;;;10.27;8.33;;;;;;;;;;5076571;28;20443;-67
2022/10/28 03:47:46;;;;;;;21.33;9.03;;;;;;;;;;5077002;28;20453;-68
2022/10/28 03:50:13;;;;;;;22.87;9.70;;;;;;;;;;5076271;28;20455;-68
2022/10/28 03:52:43;;;;;;;12.77;9.20;;;;;;;;;;5075736;28;20459;-68
2022/10/28 03:55:10;;;;;;;21.70;10.30;;;;;;;;;;5075868;28;20443;-69
2022/10/28 03:57:37;;;;;;;12.03;8.00;;;;;;;;;;5075542;28;20494;-67
2022/10/28 04:00:05;;;;;;;18.03;9.30;;;;;;;;;;5075790;28;20442;-68
2022/10/28 04:02:33;;;;;;;19.97;9.30;;;;;;;;;;5075713;28;20455;-67
2022/10/28 04:05:01;;;;;;;12.90;9.43;;;;;;;;;;5075839;28;20458;-68
2022/10/28 04:07:28;;;;;;;12.07;8.30;;;;;;;;;;5075695;28;20458;-68
2022/10/28 04:09:55;;;;;;;10.77;8.30;;;;;;;;;;5075426;28;20456;-68
2022/10/28 04:12:22;;;;;;;11.03;8.53;;;;;;;;;;5076117;28;20458;-67
2022/10/28 04:14:49;;;;;;;13.40;8.77;;;;;;;;;;5075435;28;20446;-68
2022/10/28 04:17:16;;;;;;;21.83;10.37;;;;;;;;;;5075837;28;20824;-67
2022/10/28 04:19:45;;;;;;;27.57;10.40;;;;;;;;;;5075925;28;20782;-68
2022/10/28 04:22:12;;;;;;;21.60;10.73;;;;;;;;;;5075681;28;20443;-68
2022/10/28 04:24:39;;;;;;;19.53;9.50;;;;;;;;;;5075563;28;20456;-67
2022/10/28 04:27:07;;;;;;;17.57;9.00;;;;;;;;;;5075849;28;20451;-68
2022/10/28 04:29:35;;;;;;;13.63;8.53;;;;;;;;;;5074683;28;20443;-67
2022/10/28 04:32:02;;;;;;;13.30;9.23;;;;;;;;;;5074634;28;20459;-67
2022/10/28 04:34:29;;;;;;;16.53;9.03;;;;;;;;;;5075182;28;20443;-68
2022/10/28 04:36:57;;;;;;;25.57;9.93;;;;;;;;;;5075192;28;20474;-68
2022/10/28 04:39:24;;;;;;;16.10;9.13;;;;;;;;;;5075348;28;20446;-67
2022/10/28 04:41:52;;;;;;;19.00;9.67;;;;;;;;;;5075424;28;20952;-67
2022/10/28 04:44:19;;;;;;;15.17;8.83;;;;;;;;;;5075567;28;20443;-67
2022/10/28 04:46:46;;;;;;;14.83;10.47;;;;;;;;;;5075639;28;20447;-67
2022/10/28 04:49:13;;;;;;;20.60;9.67;;;;;;;;;;5075533;28;20795;-68
2022/10/28 04:51:40;;;;;;;17.53;9.63;;;;;;;;;;5075121;28;20442;-67
2022/10/28 04:54:09;;;;;;;15.63;9.90;;;;;;;;;;5074908;28;20533;-68
2022/10/28 04:56:36;;;;;;;12.47;9.50;;;;;;;;;;5074262;28;20994;-67
2022/10/28 04:59:03;;;;;;;16.87;9.40;;;;;;;;;;5075015;28;20455;-68
2022/10/28 05:01:30;;;;;;;18.00;10.60;;;;;;;;;;5074664;28;20922;-69
2022/10/28 05:03:58;;;;;;;20.47;10.27;;;;;;;;;;5075097;28;20462;-67
2022/10/28 05:06:25;;;;;;;22.90;9.80;;;;;;;;;;5075056;28;20811;-67
2022/10/28 05:08:52;;;;;;;14.37;10.00;;;;;;;;;;5074975;28;20537;-67
2022/10/28 05:11:20;;;;;;;17.97;10.83;;;;;;;;;;5075173;28;20450;-73
2022/10/28 05:13:48;;;;;;;13.63;8.97;;;;;;;;;;5074495;28;20447;-67
2022/10/28 05:16:15;;;;;;;20.67;10.60;;;;;;;;;;5074677;28;20450;-67
2022/10/28 05:18:42;;;;;;;13.57;9.60;;;;;;;;;;5074520;28;20447;-67
2022/10/28 05:21:14;;;;;;;13.20;9.23;;;;;;;;;;5074728;28;20439;-67
2022/10/28 05:23:41;;;;;;;16.20;11.17;;;;;;;;;;5074578;28;20529;-68
2022/10/28 05:26:08;;;;;;;19.83;11.40;;;;;;;;;;5074750;28;20469;-67
2022/10/28 05:28:37;;;;;;;19.63;11.90;;;;;;;;;;5074442;28;20443;-67
2022/10/28 05:31:04;;;;;;;16.23;10.10;;;;;;;;;;5074727;28;20438;-67
2022/10/28 05:33:32;;;;;;;16.50;9.50;;;;;;;;;;5074165;28;20471;-67
2022/10/28 05:35:59;;;;;;;20.63;10.17;;;;;;;;;;5074403;28;20481;-67
2022/10/28 05:38:26;;;;;;;17.10;9.70;;;;;;;;;;5074246;28;20471;-67
2022/10/28 05:40:53;;;;;;;13.97;10.33;;;;;;;;;;5074308;28;20434;-68
2022/10/28 05:43:21;;;;;;;11.70;9.43;;;;;;;;;;5074001;28;20442;-67
2022/10/28 05:45:53;;;;;;;19.10;11.10;;;;;;;;;;5074273;28;20441;-67
2022/10/28 05:48:21;;;;;;;21.70;10.50;;;;;;;;;;5074215;28;20936;-67
2022/10/28 05:50:48;;;;;;;21.60;10.80;;;;;;;;;;5073912;28;20446;-68
2022/10/28 05:53:15;;;;;;;26.63;9.90;;;;;;;;;;5073723;28;20456;-67
2022/10/28 05:55:42;;;;;;;15.30;9.87;;;;;;;;;;5073913;28;20444;-67
2022/10/28 05:58:10;;;;;;;21.07;11.13;;;;;;;;;;5073795;28;20485;-67
2022/10/28 06:00:37;;;;;;;16.80;10.33;;;;;;;;;;5073869;28;20451;-67
2022/10/28 06:03:08;;;;;;;14.43;10.20;;;;;;;;;;5073987;28;20446;-67
2022/10/28 06:05:35;;;;;;;15.13;9.20;;;;;;;;;;5074055;28;20455;-67
2022/10/28 06:08:04;;;;;;;14.13;10.10;;;;;;;;;;5073889;28;20470;-67
2022/10/28 06:10:31;;;;;;;22.90;11.50;;;;;;;;;;5073772;28;20442;-67
2022/10/28 06:12:59;;;;;;;14.70;10.10;;;;;;;;;;5073354;28;20447;-67
2022/10/28 06:15:26;;;;;;;24.73;17.30;;;;;;;;;;5073553;28;20801;-68
2022/10/28 06:17:53;;;;;;;27.10;16.80;;;;;;;;;;5073430;28;20482;-67
2022/10/28 06:20:22;;;;;;;29.27;16.70;;;;;;;;;;5073253;28;20453;-67
2022/10/28 06:22:49;;;;;;;31.23;17.40;;;;;;;;;;5073427;28;20443;-67
2022/10/28 06:25:17;;;;;;;27.67;15.27;;;;;;;;;;5073635;28;20879;-67
2022/10/28 06:27:44;;;;;;;18.17;10.53;;;;;;;;;;5073828;28;20455;-67
2022/10/28 06:30:12;;;;;;;25.10;11.60;;;;;;;;;;5073203;28;20444;-67
2022/10/28 06:32:39;;;;;;;21.90;10.30;;;;;;;;;;5073388;28;20460;-68
2022/10/28 06:35:06;;;;;;;18.17;9.87;;;;;;;;;;5073863;28;20447;-67
2022/10/28 06:37:35;;;;;;;13.90;10.63;;;;;;;;;;5073255;28;20809;-67
2022/10/28 06:40:02;;;;;;;17.20;10.93;;;;;;;;;;5073686;28;20441;-67
2022/10/28 06:42:29;;;;;;;26.83;14.17;;;;;;;;;;5072928;28;20452;-67
2022/10/28 06:44:57;;;;;;;21.50;11.93;;;;;;;;;;5072950;28;20446;-68
2022/10/28 06:47:24;;;;;;;20.80;11.10;;;;;;;;;;5073460;28;20533;-67
2022/10/28 06:49:51;;;;;;;17.87;9.40;;;;;;;;;;5073238;28;20763;-67
2022/10/28 06:52:19;;;;;;;16.07;9.03;;;;;;;;;;5073217;28;20941;-67
2022/10/28 06:54:47;;;;;;;17.83;8.17;;;;;;;;;;5078479;28;20801;-68
2022/10/28 06:57:14;;;;;;;30.77;11.50;;;;;;;;;;5080112;28;20491;-67
2022/10/28 06:59:42;;;;;;;17.37;8.07;;;;;;;;;;5079593;28;20453;-67
2022/10/28 07:02:11;;;;;;;18.30;7.73;;;;;;;;;;5079914;28;20505;-67
2022/10/28 07:04:38;;;;;;;16.90;8.20;;;;;;;;;;5079756;28;20448;-67
2022/10/28 07:07:05;;;;;;;14.63;8.40;;;;;;;;;;5079919;28;20443;-67
2022/10/28 07:09:32;;;;;;;13.03;6.97;;;;;;;;;;5079772;28;20443;-67
2022/10/28 07:12:01;;;;;;;19.37;6.50;;;;;;;;;;5080118;28;20508;-67
2022/10/28 07:14:28;;;;;;;13.00;8.00;;;;;;;;;;5079708;28;20796;-67
2022/10/28 07:16:56;;;;;;;12.50;8.13;;;;;;;;;;5079733;28;20442;-67
2022/10/28 07:19:23;;;;;;;20.37;8.37;;;;;;;;;;5079773;28;20442;-67
2022/10/28 07:21:50;;;;;;;18.53;7.30;;;;;;;;;;5079772;28;20449;-67
2022/10/28 07:24:17;;;;;;;13.67;7.50;;;;;;;;;;5079389;28;20535;-67
2022/10/28 07:26:45;;;;;;;14.53;7.80;;;;;;;;;;5080178;28;20570;-67
2022/10/28 07:29:13;;;;;;;16.03;7.63;;;;;;;;;;5079588;28;20533;-67
2022/10/28 07:31:40;;;;;;;16.40;7.10;;;;;;;;;;5079771;28;20448;-68
2022/10/28 07:34:07;;;;;;;15.33;7.00;;;;;;;;;;5079574;28;20443;-67
2022/10/28 07:36:35;;;;;;;14.97;7.87;;;;;;;;;;5079181;28;20455;-67
2022/10/28 07:39:02;;;;;;;16.90;9.47;;;;;;;;;;5079658;28;20487;-67
2022/10/28 07:41:29;;;;;;;10.77;7.03;;;;;;;;;;5079250;28;20926;-67
2022/10/28 07:43:56;;;;;;;13.50;6.67;;;;;;;;;;5079426;28;20437;-67
2022/10/28 07:46:25;;;;;;;14.30;7.57;;;;;;;;;;5079201;28;20442;-67
2022/10/28 07:48:52;;;;;;;15.33;7.00;;;;;;;;;;5079092;28;20451;-67
2022/10/28 07:51:19;;;;;;;12.77;6.60;;;;;;;;;;5079209;28;20446;-68
2022/10/28 07:53:46;;;;;;;11.10;6.20;;;;;;;;;;5079310;28;20448;-67
2022/10/28 07:56:13;;;;;;;12.60;6.63;;;;;;;;;;5079246;28;20527;-67
2022/10/28 07:58:42;;;;;;;16.03;5.73;;;;;;;;;;5079463;28;20477;-67
2022/10/28 08:01:11;;;;;;;13.87;7.37;;;;;;;;;;5079404;28;20522;-68
2022/10/28 08:03:40;;;;;;;16.60;6.33;;;;;;;;;;5078498;28;20446;-68
2022/10/28 08:06:08;;;;;;;15.77;6.93;;;;;;;;;;5076742;28;20452;-67
2022/10/28 08:08:35;;;;;;;18.30;7.60;;;;;;;;;;5075988;28;20467;-67
2022/10/28 08:11:09;;;;;;;8.07;6.03;;;;;;;;;;5075901;28;20453;-67
2022/10/28 08:13:36;;;;;;;10.17;5.73;;;;;;;;;;5076056;28;20434;-67
2022/10/28 08:16:03;;;;;;;14.30;5.83;;;;;;;;;;5075770;28;20907;-68
2022/10/28 08:18:30;;;;;;;15.80;6.23;;;;;;;;;;5075937;28;20992;-67
2022/10/28 08:21:00;;;;;;;13.73;5.80;;;;;;;;;;5075797;28;20447;-67
2022/10/28 08:23:28;;;;;;;14.13;5.73;;;;;;;;;;5076006;28;20431;-67
2022/10/28 08:25:55;;;;;;;16.67;5.50;;;;;;;;;;5076156;28;20475;-67
2022/10/28 08:28:22;;;;;;;11.13;5.80;;;;;;;;;;5076222;28;20457;-67
2022/10/28 08:30:50;;;;;;;11.73;5.80;;;;;;;;;;5075755;28;20449;-67
2022/10/28 08:33:17;;;;;;;14.30;6.03;;;;;;;;;;5075383;28;20443;-67
2022/10/28 08:35:44;;;;;;;11.80;6.57;;;;;;;;;;5075971;28;20478;-67
2022/10/28 08:38:13;;;;;;;12.40;5.37;;;;;;;;;;5075615;28;21067;-67
2022/10/28 08:40:43;;;;;;;10.83;6.50;;;;;;;;;;5075772;28;20449;-67
2022/10/28 08:43:18;;;;;;;14.77;6.03;;;;;;;;;;5075895;28;20465;-67
2022/10/28 08:45:48;;;;;;;19.00;5.47;;;;;;;;;;5075614;28;20462;-67
2022/10/28 08:48:18;;;;;;;14.40;6.20;;;;;;;;;;5075158;28;20564;-67
2022/10/28 08:50:47;;;;;;;12.40;5.50;;;;;;;;;;5075331;28;20547;-67
2022/10/28 08:53:17;;;;;;;10.13;5.20;;;;;;;;;;5075357;28;20445;-67
2022/10/28 08:55:46;;;;;;;11.17;5.40;;;;;;;;;;5075113;28;20438;-67
2022/10/28 08:58:16;;;;;;;14.00;6.10;;;;;;;;;;5074903;28;20995;-67
2022/10/28 09:00:45;;;;;;;14.37;4.33;;;;;;;;;;5074865;28;20914;-68
2022/10/28 09:03:19;;;;;;;11.83;4.90;;;;;;;;;;5075061;28;20444;-67
2022/10/28 09:05:48;;;;;;;13.10;5.50;;;;;;;;;;5075218;28;20494;-67
2022/10/28 09:08:21;;;;;;;12.10;6.40;;;;;;;;;;5075026;28;20891;-67
2022/10/28 09:11:01;;;;;;;12.90;5.63;;;;;;;;;;5074664;28;20486;-67
2022/10/28 09:13:32;;;;;;;9.70;4.63;;;;;;;;;;5075230;28;20443;-67
2022/10/28 09:16:03;;;;;;;8.87;4.57;;;;;;;;;;5074808;28;20434;-68
2022/10/28 09:18:39;;;;;;;11.10;4.97;;;;;;;;;;5074775;28;20998;-68
2022/10/28 09:21:10;;;;;;;6.20;4.33;;;;;;;;;;5074356;28;20441;-68
2022/10/28 09:23:42;;;;;;;19.03;6.53;;;;;;;;;;5074640;28;20435;-67
2022/10/28 09:26:13;;;;;;;22.23;7.10;;;;;;;;;;5074273;28;20982;-68
2022/10/28 09:28:47;;;;;;;11.90;6.37;;;;;;;;;;5074737;28;20448;-67
2022/10/28 09:31:18;;;;;;;10.97;4.80;;;;;;;;;;5074165;28;20439;-67
2022/10/28 09:33:53;;;;;;;14.70;4.67;;;;;;;;;;5075119;28;20519;-67
2022/10/28 09:36:25;;;;;;;17.80;4.60;;;;;;;;;;5074278;28;20457;-67
2022/10/28 09:38:55;;;;;;;11.40;5.00;;;;;;;;;;5074662;28;20472;-68
2022/10/28 09:41:29;;;;;;;12.13;5.20;;;;;;;;;;5074624;28;20429;-68
2022/10/28 09:43:59;;;;;;;15.20;5.47;;;;;;;;;;5074637;28;20455;-67
2022/10/28 09:46:29;;;;;;;13.23;5.00;;;;;;;;;;5074565;28;20439;-67
2022/10/28 09:48:57;;;;;;;10.97;5.53;;;;;;;;;;5074519;28;20535;-67
2022/10/28 09:51:28;;;;;;;13.03;4.93;;;;;;;;;;5074093;28;20509;-67
2022/10/28 09:53:57;;;;;;;16.00;6.43;;;;;;;;;;5074219;28;20436;-67
2022/10/28 09:56:25;;;;;;;10.67;6.03;;;;;;;;;;5073619;28;20448;-67
2022/10/28 09:58:53;;;;;;;19.93;5.03;;;;;;;;;;5074010;28;20483;-67
2022/10/28 10:01:20;;;;;;;12.50;5.67;;;;;;;;;;5073577;28;20528;-67
2022/10/28 10:03:49;;;;;;;12.87;6.00;;;;;;;;;;5073961;28;20459;-67
2022/10/28 10:06:18;;;;;;;14.33;5.23;;;;;;;;;;5074171;28;20456;-66
2022/10/28 10:08:47;;;;;;;12.03;6.00;;;;;;;;;;5073635;28;20460;-67
2022/10/28 10:11:18;;;;;;;13.37;5.43;;;;;;;;;;5073460;28;20451;-67
2022/10/28 10:13:46;;;;;;;12.57;5.23;;;;;;;;;;5074448;28;20429;-68
2022/10/28 10:16:15;;;;;;;17.67;5.27;;;;;;;;;;5074240;28;20448;-67
2022/10/28 10:18:47;;;;;;;16.37;5.73;;;;;;;;;;5074347;28;20473;-67
2022/10/28 10:21:15;;;;;;;11.23;5.23;;;;;;;;;;5073713;28;20434;-68
2022/10/28 10:23:42;;;;;;;13.27;5.10;;;;;;;;;;5073786;28;20449;-67
2022/10/28 10:26:10;;;;;;;12.40;5.50;;;;;;;;;;5073523;28;20476;-67
2022/10/28 10:28:41;;;;;;;11.03;4.60;;;;;;;;;;5072680;28;20451;-67
2022/10/28 10:31:09;;;;;;;13.33;6.37;;;;;;;;;;5073642;28;20469;-67
2022/10/28 10:33:38;;;;;;;20.03;5.70;;;;;;;;;;5073729;28;20527;-68
2022/10/28 10:36:06;;;;;;;16.73;5.00;;;;;;;;;;5073853;28;20452;-67
2022/10/28 10:38:33;;;;;;;11.87;5.53;;;;;;;;;;5073497;28;20484;-67
2022/10/28 10:41:00;;;;;;;13.80;5.33;;;;;;;;;;5073273;28;20445;-67
2022/10/28 10:43:31;;;;;;;14.40;5.73;;;;;;;;;;5073522;28;20442;-68
2022/10/28 10:46:03;;;;;;;12.60;4.67;;;;;;;;;;5073805;28;20786;-67
2022/10/28 10:48:33;;;;;;;10.40;4.87;;;;;;;;;;5073457;28;20796;-67
2022/10/28 10:51:05;;;;;;;16.77;5.10;;;;;;;;;;5073028;28;20448;-67
2022/10/28 10:53:32;;;;;;;11.00;5.20;;;;;;;;;;5073777;28;20436;-67
2022/10/28 10:56:01;;;;;;;10.97;5.57;;;;;;;;;;5072930;28;20447;-66
2022/10/28 10:58:29;;;;;;;16.73;5.30;;;;;;;;;;5073277;28;20480;-67
2022/10/28 11:00:57;;;;;;;12.83;5.17;;;;;;;;;;5073222;28;20458;-66
2022/10/28 11:03:28;;;;;;;13.40;5.90;;;;;;;;;;5073897;28;20524;-66
2022/10/28 11:05:56;;;;;;;17.93;5.53;;;;;;;;;;5073562;28;20960;-66
2022/10/28 11:08:34;;;;;;;11.80;4.50;;;;;;;;;;5073283;28;20467;-67
2022/10/28 11:11:03;;;;;;;14.23;5.47;;;;;;;;;;5073137;28;20531;-66
2022/10/28 11:13:31;;;;;;;18.13;5.30;;;;;;;;;;5072940;28;20958;-67
2022/10/28 11:16:02;;;;;;;10.57;5.00;;;;;;;;;;5073068;28;20447;-66
2022/10/28 11:18:39;;;;;;;12.37;5.57;;;;;;;;;;5072747;28;20478;-67
2022/10/28 11:21:08;;;;;;;16.17;6.97;;;;;;;;;;5073567;28;20429;-66
2022/10/28 11:23:41;;;;;;;21.87;5.43;;;;;;;;;;5073040;28;20529;-66
2022/10/28 11:26:11;;;;;;;8.50;4.73;;;;;;;;;;5072795;28;20470;-66
2022/10/28 11:28:59;;;;;;;14.37;6.10;;;;;;;;;;5072653;28;20455;-67
2022/10/28 11:31:37;;;;;;;12.47;5.43;;;;;;;;;;5068114;28;20832;-67
2022/10/28 11:34:18;;;;;;;16.87;5.33;;;;;;;;;;5073304;28;20433;-68
2022/10/28 11:36:48;;;;;;;7.80;5.00;;;;;;;;;;5073203;28;20920;-67
2022/10/28 11:39:21;;;;;;;15.53;5.50;;;;;;;;;;5072645;28;20478;-67
2022/10/28 11:41:53;;;;;;;10.73;4.33;;;;;;;;;;5076815;28;20453;-67
2022/10/28 11:44:27;;;;;;;14.00;5.20;;;;;;;;;;5077263;28;20443;-67
2022/10/28 11:46:58;;;;;;;16.03;5.83;;;;;;;;;;5076940;28;20431;-67
2022/10/28 11:49:37;;;;;;;18.10;4.30;;;;;;;;;;5076980;28;20437;-67
2022/10/28 11:52:12;;;;;;;18.83;5.57;;;;;;;;;;5076848;28;20448;-67
2022/10/28 11:54:46;;;;;;;13.07;5.30;;;;;;;;;;5076522;28;20434;-67
2022/10/28 11:57:14;;;;;;;13.73;5.33;;;;;;;;;;5076017;28;20475;-67
2022/10/28 12:00:05;;;;;;;14.30;5.20;;;;;;;;;;5076224;28;20477;-67
2022/10/28 12:02:39;;;;;;;12.10;5.17;;;;;;;;;;5061030;28;20456;-67
2022/10/28 12:05:13;;;;;;;12.57;5.10;;;;;;;;;;5076912;28;20454;-67
2022/10/28 12:07:48;;;;;;;10.33;5.47;;;;;;;;;;5076498;28;20452;-67
2022/10/28 12:10:25;;;;;;;12.90;5.33;;;;;;;;;;5076536;28;20433;-67
2022/10/28 12:12:58;;;;;;;12.33;4.50;;;;;;;;;;5076195;28;20441;-67
2022/10/28 12:15:27;;;;;;;11.37;4.70;;;;;;;;;;5076190;28;20426;-67
2022/10/28 12:17:59;;;;;;;12.13;5.03;;;;;;;;;;5076281;28;20442;-67
2022/10/28 12:20:31;;;;;;;15.00;5.00;;;;;;;;;;5076236;28;20481;-67
2022/10/28 12:22:59;;;;;;;12.30;4.83;;;;;;;;;;5075834;28;20519;-66
2022/10/28 12:25:28;;;;;;;15.73;5.00;;;;;;;;;;5076079;28;20469;-67
2022/10/28 12:27:57;;;;;;;12.87;5.63;;;;;;;;;;5076115;28;20442;-67
2022/10/28 12:30:27;;;;;;;10.93;5.30;;;;;;;;;;5075943;28;20529;-67
2022/10/28 12:32:58;;;;;;;17.40;5.57;;;;;;;;;;5075652;28;20448;-67
2022/10/28 12:35:26;;;;;;;11.70;4.53;;;;;;;;;;5076038;28;20471;-67
2022/10/28 12:37:59;;;;;;;12.07;4.90;;;;;;;;;;5075005;28;20443;-67
2022/10/28 12:40:27;;;;;;;17.50;5.20;;;;;;;;;;5075827;28;20827;-67
2022/10/28 12:42:56;;;;;;;16.30;5.20;;;;;;;;;;5075490;28;20443;-66
2022/10/28 12:45:24;;;;;;;9.07;4.87;;;;;;;;;;5075500;28;20813;-66
2022/10/28 12:47:55;;;;;;;11.50;5.40;;;;;;;;;;5075245;28;20450;-66
2022/10/28 12:50:26;;;;;;;9.30;5.70;;;;;;;;;;5075336;28;20901;-64
2022/10/28 12:52:59;;;;;;;17.33;5.00;;;;;;;;;;5074522;28;20438;-67
2022/10/28 12:55:31;;;;;;;10.43;5.27;;;;;;;;;;5075752;28;20438;-66
2022/10/28 12:58:00;;;;;;;11.67;5.70;;;;;;;;;;5075419;28;20449;-66
2022/10/28 13:00:29;;;;;;;16.13;4.60;;;;;;;;;;5075138;28;20835;-66
2022/10/28 13:03:00;;;;;;;12.83;5.00;;;;;;;;;;5075040;28;20448;-67
2022/10/28 13:05:29;;;;;;;11.00;5.10;;;;;;;;;;5074997;28;20451;-66
2022/10/28 13:08:11;;;;;;;13.93;5.50;;;;;;;;;;5074400;28;20452;-66
2022/10/28 13:10:40;;;;;;;11.77;5.90;;;;;;;;;;5073884;28;21094;-66
2022/10/28 13:13:13;;;;;;;12.80;4.90;;;;;;;;;;5073867;28;20458;-66
2022/10/28 13:15:49;;;;;;;17.30;5.63;;;;;;;;;;5074764;28;20435;-66
2022/10/28 13:18:34;;;;;;;11.93;5.33;;;;;;;;;;5074345;28;20431;-67
2022/10/28 13:21:06;;;;;;;16.73;5.13;;;;;;;;;;5074114;28;20480;-67
2022/10/28 13:23:39;;;;;;;10.40;4.60;;;;;;;;;;5073892;28;20442;-66
2022/10/28 13:26:10;;;;;;;12.97;4.60;;;;;;;;;;5074356;28;20964;-66
2022/10/28 13:28:44;;;;;;;12.87;4.70;;;;;;;;;;5074098;28;20923;-66
2022/10/28 13:31:13;;;;;;;17.80;5.67;;;;;;;;;;5073946;28;20443;-67
2022/10/28 13:33:47;;;;;;;12.07;6.20;;;;;;;;;;5074180;28;20505;-67
2022/10/28 13:36:19;;;;;;;12.80;5.27;;;;;;;;;;5074238;28;20462;-67
2022/10/28 13:38:52;;;;;;;13.90;4.83;;;;;;;;;;5074040;28;20445;-66
2022/10/28 13:41:36;;;;;;;11.03;4.27;;;;;;;;;;5073897;28;20917;-66
2022/10/28 13:44:18;;;;;;;12.00;5.00;;;;;;;;;;5074317;28;20443;-66
2022/10/28 13:47:05;;;;;;;6.77;4.23;;;;;;;;;;5074381;28;20434;-66
2022/10/28 13:49:33;;;;;;;14.90;5.70;;;;;;;;;;5074169;28;20890;-68
2022/10/28 13:52:01;;;;;;;15.50;6.10;;;;;;;;;;5073678;28;20444;-66
2022/10/28 13:54:31;;;;;;;13.83;4.40;;;;;;;;;;5074062;28;20447;-67
2022/10/28 13:57:03;;;;;;;13.17;5.17;;;;;;;;;;5074329;28;20426;-67
2022/10/28 13:59:31;;;;;;;12.83;4.90;;;;;;;;;;5073759;28;20468;-67
2022/10/28 14:02:03;;;;;;;15.97;6.30;;;;;;;;;;5073995;28;20444;-66
2022/10/28 14:04:31;;;;;;;13.47;5.00;;;;;;;;;;5073597;28;20925;-67
2022/10/28 14:07:02;;;;;;;15.03;4.80;;;;;;;;;;5073879;28;20444;-67
2022/10/28 14:09:33;;;;;;;11.20;5.10;;;;;;;;;;5073534;28;20460;-67
2022/10/28 14:12:15;;;;;;;10.17;5.53;;;;;;;;;;5073075;28;20555;-66
2022/10/28 14:14:51;;;;;;;7.83;4.20;;;;;;;;;;5073806;28;20446;-66
2022/10/28 14:17:21;;;;;;;15.93;5.07;;;;;;;;;;5073289;28;20431;-66
2022/10/28 14:19:50;;;;;;;13.33;5.07;;;;;;;;;;5073111;28;20995;-66
2022/10/28 14:22:27;;;;;;;12.80;5.67;;;;;;;;;;5073487;28;20456;-67
2022/10/28 14:24:56;;;;;;;11.30;4.53;;;;;;;;;;5073445;28;20980;-66
2022/10/28 14:27:30;;;;;;;14.87;5.60;;;;;;;;;;5073522;28;20455;-66
2022/10/28 14:30:14;;;;;;;19.20;5.67;;;;;;;;;;5073267;28;20459;-66
2022/10/28 14:32:45;;;;;;;8.30;4.43;;;;;;;;;;5072936;28;20457;-66
2022/10/28 14:35:20;;;;;;;16.83;4.70;;;;;;;;;;5073323;28;20454;-66
2022/10/28 14:38:08;;;;;;;20.83;5.30;;;;;;;;;;5073671;28;20427;-66
2022/10/28 14:40:41;;;;;;;14.47;4.23;;;;;;;;;;5072889;28;20470;-66
2022/10/28 14:43:16;;;;;;;11.50;6.03;;;;;;;;;;5073794;28;20440;-66